sensor_id;sensor_type;location;lat;lon;timestamp;pressure;altitude;pressure_sealevel;temperature;humidity
13593;BME280;6867;50.998;4.250;2023-02-16T00:01:16;102189.06;;;5.80;79.74
13593;BME280;6867;50.998;4.250;2023-02-16T00:03:43;102198.47;;;5.74;79.76
13593;BME280;6867;50.998;4.250;2023-02-16T00:06:09;102193.56;;;5.70;79.50
13593;BME280;6867;50.998;4.250;2023-02-16T00:08:40;102204.06;;;5.71;80.26
13593;BME280;6867;50.998;4.250;2023-02-16T00:11:12;102204.22;;;5.70;80.31
13593;BME280;6867;50.998;4.250;2023-02-16T00:13:58;102199.16;;;5.67;80.69
13593;BME280;6867;50.998;4.250;2023-02-16T00:16:26;102202.53;;;5.79;80.54
13593;BME280;6867;50.998;4.250;2023-02-16T00:18:53;102183.31;;;5.75;80.17
13593;BME280;6867;50.998;4.250;2023-02-16T00:21:20;102186.09;;;5.64;79.91
13593;BME280;6867;50.998;4.250;2023-02-16T00:23:47;102171.13;;;5.53;79.42
13593;BME280;6867;50.998;4.250;2023-02-16T00:26:16;102185.13;;;5.45;79.81
13593;BME280;6867;50.998;4.250;2023-02-16T00:28:43;102176.16;;;5.37;79.18
13593;BME280;6867;50.998;4.250;2023-02-16T00:31:16;102175.28;;;5.17;79.60
13593;BME280;6867;50.998;4.250;2023-02-16T00:33:45;102181.19;;;5.20;80.42
13593;BME280;6867;50.998;4.250;2023-02-16T00:36:12;102167.44;;;5.25;79.79
13593;BME280;6867;50.998;4.250;2023-02-16T00:38:39;102170.25;;;5.33;79.29
13593;BME280;6867;50.998;4.250;2023-02-16T00:41:14;102160.16;;;5.37;79.86
13593;BME280;6867;50.998;4.250;2023-02-16T00:44:03;102158.06;;;5.40;79.75
13593;BME280;6867;50.998;4.250;2023-02-16T00:46:30;102160.75;;;5.40;79.55
13593;BME280;6867;50.998;4.250;2023-02-16T00:48:58;102169.16;;;5.36;79.07
13593;BME280;6867;50.998;4.250;2023-02-16T00:51:24;102162.53;;;5.30;79.59
13593;BME280;6867;50.998;4.250;2023-02-16T00:53:51;102160.16;;;5.37;79.35
13593;BME280;6867;50.998;4.250;2023-02-16T00:56:18;102157.50;;;5.37;80.25
13593;BME280;6867;50.998;4.250;2023-02-16T00:58:48;102163.81;;;5.36;80.17
13593;BME280;6867;50.998;4.250;2023-02-16T01:01:25;102161.16;;;5.45;80.29
13593;BME280;6867;50.998;4.250;2023-02-16T01:03:54;102159.31;;;5.46;79.58
13593;BME280;6867;50.998;4.250;2023-02-16T01:06:22;102157.91;;;5.52;79.44
13593;BME280;6867;50.998;4.250;2023-02-16T01:09:11;102153.44;;;5.52;80.00
13593;BME280;6867;50.998;4.250;2023-02-16T01:11:56;102137.47;;;5.52;79.38
13593;BME280;6867;50.998;4.250;2023-02-16T01:14:23;102142.06;;;5.60;79.99
13593;BME280;6867;50.998;4.250;2023-02-16T01:16:50;102133.53;;;5.56;79.70
13593;BME280;6867;50.998;4.250;2023-02-16T01:19:17;102140.38;;;5.59;80.24
13593;BME280;6867;50.998;4.250;2023-02-16T01:21:45;102133.22;;;5.59;79.80
13593;BME280;6867;50.998;4.250;2023-02-16T01:24:11;102150.06;;;5.60;80.03
13593;BME280;6867;50.998;4.250;2023-02-16T01:26:40;102150.06;;;5.69;80.25
13593;BME280;6867;50.998;4.250;2023-02-16T01:29:12;102136.03;;;5.77;80.56
13593;BME280;6867;50.998;4.250;2023-02-16T01:31:40;102147.66;;;5.76;80.14
13593;BME280;6867;50.998;4.250;2023-02-16T01:34:06;102144.03;;;5.77;80.40
13593;BME280;6867;50.998;4.250;2023-02-16T01:36:35;102138.81;;;5.85;80.58
13593;BME280;6867;50.998;4.250;2023-02-16T01:39:04;102142.06;;;5.98;80.31
13593;BME280;6867;50.998;4.250;2023-02-16T01:41:43;102152.28;;;6.03;80.47
13593;BME280;6867;50.998;4.250;2023-02-16T01:44:14;102153.81;;;6.15;80.91
13593;BME280;6867;50.998;4.250;2023-02-16T01:46:44;102145.78;;;6.15;80.77
13593;BME280;6867;50.998;4.250;2023-02-16T01:49:14;102147.31;;;6.18;80.68
13593;BME280;6867;50.998;4.250;2023-02-16T01:51:48;102150.09;;;6.26;80.76
13593;BME280;6867;50.998;4.250;2023-02-16T01:54:34;102150.81;;;6.28;80.83
13593;BME280;6867;50.998;4.250;2023-02-16T01:57:07;102147.44;;;6.26;80.76
13593;BME280;6867;50.998;4.250;2023-02-16T01:59:40;102128.13;;;6.42;80.36
13593;BME280;6867;50.998;4.250;2023-02-16T02:02:28;102115.03;;;6.48;80.11
13593;BME280;6867;50.998;4.250;2023-02-16T02:04:59;102112.50;;;6.47;79.79
13593;BME280;6867;50.998;4.250;2023-02-16T02:07:48;102100.53;;;6.51;79.75
13593;BME280;6867;50.998;4.250;2023-02-16T02:10:23;102100.16;;;6.46;79.65
13593;BME280;6867;50.998;4.250;2023-02-16T02:12:58;102089.75;;;6.43;79.09
13593;BME280;6867;50.998;4.250;2023-02-16T02:15:30;102096.00;;;6.34;79.12
13593;BME280;6867;50.998;4.250;2023-02-16T02:17:57;102103.22;;;6.23;79.31
13593;BME280;6867;50.998;4.250;2023-02-16T02:20:30;102091.84;;;6.21;79.54
13593;BME280;6867;50.998;4.250;2023-02-16T02:23:46;102106.63;;;6.16;79.46
13593;BME280;6867;50.998;4.250;2023-02-16T02:26:49;102104.78;;;6.16;79.98
13593;BME280;6867;50.998;4.250;2023-02-16T02:29:36;102097.56;;;6.27;79.84
13593;BME280;6867;50.998;4.250;2023-02-16T02:32:13;102087.84;;;6.35;80.08
13593;BME280;6867;50.998;4.250;2023-02-16T02:34:52;102096.94;;;6.42;80.31
13593;BME280;6867;50.998;4.250;2023-02-16T02:37:27;102092.53;;;6.51;80.19
13593;BME280;6867;50.998;4.250;2023-02-16T02:40:01;102098.97;;;6.58;80.19
13593;BME280;6867;50.998;4.250;2023-02-16T02:42:37;102090.22;;;6.66;80.18
13593;BME280;6867;50.998;4.250;2023-02-16T02:45:10;102096.56;;;6.65;79.98
13593;BME280;6867;50.998;4.250;2023-02-16T02:47:41;102090.22;;;6.66;79.53
13593;BME280;6867;50.998;4.250;2023-02-16T02:53:34;102088.00;;;6.61;79.81
13593;BME280;6867;50.998;4.250;2023-02-16T02:56:03;102083.88;;;6.67;80.04
13593;BME280;6867;50.998;4.250;2023-02-16T02:58:54;102086.16;;;6.62;79.68
13593;BME280;6867;50.998;4.250;2023-02-16T03:01:43;102073.09;;;6.59;79.41
13593;BME280;6867;50.998;4.250;2023-02-16T03:04:13;102069.44;;;6.60;79.41
13593;BME280;6867;50.998;4.250;2023-02-16T03:06:44;102061.88;;;6.55;79.64
13593;BME280;6867;50.998;4.250;2023-02-16T03:09:14;102063.34;;;6.49;79.37
13593;BME280;6867;50.998;4.250;2023-02-16T03:11:41;102060.56;;;6.41;79.56
13593;BME280;6867;50.998;4.250;2023-02-16T03:14:40;102064.81;;;6.34;79.69
13593;BME280;6867;50.998;4.250;2023-02-16T03:17:11;102061.75;;;6.29;79.71
13593;BME280;6867;50.998;4.250;2023-02-16T03:19:57;102059.97;;;6.20;79.32
13593;BME280;6867;50.998;4.250;2023-02-16T03:22:42;102056.66;;;6.08;79.57
13593;BME280;6867;50.998;4.250;2023-02-16T03:25:31;102067.75;;;6.04;79.42
13593;BME280;6867;50.998;4.250;2023-02-16T03:28:17;102066.22;;;6.01;79.37
13593;BME280;6867;50.998;4.250;2023-02-16T03:31:04;102069.16;;;6.08;80.18
13593;BME280;6867;50.998;4.250;2023-02-16T03:33:32;102071.66;;;6.19;79.57
13593;BME280;6867;50.998;4.250;2023-02-16T03:35:59;102079.44;;;6.30;79.91
13593;BME280;6867;50.998;4.250;2023-02-16T03:38:26;102081.09;;;6.41;80.47
13593;BME280;6867;50.998;4.250;2023-02-16T03:40:53;102095.06;;;6.53;80.63
13593;BME280;6867;50.998;4.250;2023-02-16T03:43:23;102102.31;;;6.60;80.87
13593;BME280;6867;50.998;4.250;2023-02-16T03:45:50;102079.19;;;6.79;80.26
13593;BME280;6867;50.998;4.250;2023-02-16T03:48:18;102079.09;;;6.88;80.73
13593;BME280;6867;50.998;4.250;2023-02-16T03:50:45;102059.47;;;6.97;80.23
13593;BME280;6867;50.998;4.250;2023-02-16T03:53:12;102066.59;;;7.07;80.21
13593;BME280;6867;50.998;4.250;2023-02-16T03:55:42;102070.41;;;7.04;80.13
13593;BME280;6867;50.998;4.250;2023-02-16T03:58:11;102066.28;;;7.10;80.28
13593;BME280;6867;50.998;4.250;2023-02-16T04:00:38;102068.34;;;7.16;80.17
13593;BME280;6867;50.998;4.250;2023-02-16T04:03:06;102065.81;;;7.32;79.77
13593;BME280;6867;50.998;4.250;2023-02-16T04:05:35;102062.50;;;7.38;78.82
13593;BME280;6867;50.998;4.250;2023-02-16T04:08:03;102045.41;;;7.49;79.23
13593;BME280;6867;50.998;4.250;2023-02-16T04:10:30;102032.44;;;7.62;78.44
13593;BME280;6867;50.998;4.250;2023-02-16T04:12:57;102040.16;;;7.65;78.02
13593;BME280;6867;50.998;4.250;2023-02-16T04:15:25;102036.00;;;7.71;77.89
13593;BME280;6867;50.998;4.250;2023-02-16T04:17:52;102026.78;;;7.65;77.98
13593;BME280;6867;50.998;4.250;2023-02-16T04:20:21;102046.44;;;7.82;77.77
13593;BME280;6867;50.998;4.250;2023-02-16T04:22:50;102052.81;;;7.89;77.18
13593;BME280;6867;50.998;4.250;2023-02-16T04:25:17;102040.75;;;7.85;77.01
13593;BME280;6867;50.998;4.250;2023-02-16T04:27:45;102025.94;;;7.91;76.44
13593;BME280;6867;50.998;4.250;2023-02-16T04:30:14;102038.03;;;8.03;76.10
13593;BME280;6867;50.998;4.250;2023-02-16T04:32:41;102038.09;;;7.85;75.68
13593;BME280;6867;50.998;4.250;2023-02-16T04:35:08;102024.03;;;7.83;75.59
13593;BME280;6867;50.998;4.250;2023-02-16T04:37:36;102017.38;;;7.87;75.80
13593;BME280;6867;50.998;4.250;2023-02-16T04:40:05;102024.63;;;7.95;75.10
13593;BME280;6867;50.998;4.250;2023-02-16T04:42:33;102009.88;;;7.91;75.50
13593;BME280;6867;50.998;4.250;2023-02-16T04:44:59;102014.09;;;8.02;75.41
13593;BME280;6867;50.998;4.250;2023-02-16T04:47:26;102020.47;;;8.09;75.68
13593;BME280;6867;50.998;4.250;2023-02-16T04:49:53;102020.00;;;8.13;74.84
13593;BME280;6867;50.998;4.250;2023-02-16T04:52:20;102027.50;;;8.10;74.96
13593;BME280;6867;50.998;4.250;2023-02-16T04:54:46;102015.69;;;8.20;74.59
13593;BME280;6867;50.998;4.250;2023-02-16T04:57:15;102006.13;;;8.18;74.85
13593;BME280;6867;50.998;4.250;2023-02-16T04:59:42;101997.41;;;8.08;75.06
13593;BME280;6867;50.998;4.250;2023-02-16T05:02:08;101997.41;;;8.08;74.45
13593;BME280;6867;50.998;4.250;2023-02-16T05:04:35;101997.75;;;8.13;73.87
13593;BME280;6867;50.998;4.250;2023-02-16T05:07:02;101995.53;;;8.00;74.10
13593;BME280;6867;50.998;4.250;2023-02-16T05:09:28;101999.06;;;8.09;74.25
13593;BME280;6867;50.998;4.250;2023-02-16T05:11:55;101989.94;;;8.19;73.80
13593;BME280;6867;50.998;4.250;2023-02-16T05:14:40;101998.41;;;8.15;74.09
13593;BME280;6867;50.998;4.250;2023-02-16T05:17:07;101989.03;;;8.11;73.76
13593;BME280;6867;50.998;4.250;2023-02-16T05:19:35;101984.53;;;8.11;73.69
13593;BME280;6867;50.998;4.250;2023-02-16T05:22:01;101981.38;;;8.16;73.67
13593;BME280;6867;50.998;4.250;2023-02-16T05:24:28;101986.03;;;8.14;74.49
13593;BME280;6867;50.998;4.250;2023-02-16T05:26:55;101971.84;;;8.21;73.67
13593;BME280;6867;50.998;4.250;2023-02-16T05:29:22;101981.00;;;8.03;73.97
13593;BME280;6867;50.998;4.250;2023-02-16T05:31:50;101988.69;;;8.06;74.33
13593;BME280;6867;50.998;4.250;2023-02-16T05:34:17;101994.69;;;7.99;74.57
13593;BME280;6867;50.998;4.250;2023-02-16T05:36:44;102005.13;;;8.19;74.10
13593;BME280;6867;50.998;4.250;2023-02-16T05:39:10;102000.66;;;7.93;73.11
13593;BME280;6867;50.998;4.250;2023-02-16T05:41:37;101994.75;;;8.16;73.74
13593;BME280;6867;50.998;4.250;2023-02-16T05:44:05;101995.28;;;8.19;74.01
13593;BME280;6867;50.998;4.250;2023-02-16T05:46:35;101976.03;;;8.16;73.41
13593;BME280;6867;50.998;4.250;2023-02-16T05:49:04;101996.22;;;8.10;73.74
13593;BME280;6867;50.998;4.250;2023-02-16T05:51:31;102006.31;;;8.16;73.60
13593;BME280;6867;50.998;4.250;2023-02-16T05:53:58;102001.59;;;8.18;73.12
13593;BME280;6867;50.998;4.250;2023-02-16T05:56:26;102008.13;;;8.08;73.41
13593;BME280;6867;50.998;4.250;2023-02-16T05:58:53;102027.06;;;8.22;74.13
13593;BME280;6867;50.998;4.250;2023-02-16T06:01:20;102012.69;;;8.23;74.11
13593;BME280;6867;50.998;4.250;2023-02-16T06:03:48;102019.81;;;8.15;74.05
13593;BME280;6867;50.998;4.250;2023-02-16T06:06:16;102015.19;;;8.25;73.83
13593;BME280;6867;50.998;4.250;2023-02-16T06:08:43;102015.38;;;8.23;73.85
13593;BME280;6867;50.998;4.250;2023-02-16T06:11:10;102011.16;;;8.21;73.15
13593;BME280;6867;50.998;4.250;2023-02-16T06:13:50;102011.16;;;8.21;73.59
13593;BME280;6867;50.998;4.250;2023-02-16T06:16:19;102006.81;;;8.20;73.26
13593;BME280;6867;50.998;4.250;2023-02-16T06:18:46;102009.16;;;8.23;73.86
13593;BME280;6867;50.998;4.250;2023-02-16T06:21:13;101993.78;;;8.25;73.33
13593;BME280;6867;50.998;4.250;2023-02-16T06:23:41;102002.78;;;8.16;73.32
13593;BME280;6867;50.998;4.250;2023-02-16T06:26:07;102002.44;;;8.19;73.66
13593;BME280;6867;50.998;4.250;2023-02-16T06:28:34;102006.69;;;8.30;73.75
13593;BME280;6867;50.998;4.250;2023-02-16T06:31:01;102007.50;;;8.30;73.77
13593;BME280;6867;50.998;4.250;2023-02-16T06:33:28;102024.59;;;8.29;74.13
13593;BME280;6867;50.998;4.250;2023-02-16T06:35:55;102022.63;;;8.39;73.64
13593;BME280;6867;50.998;4.250;2023-02-16T06:38:21;102012.66;;;8.58;73.15
13593;BME280;6867;50.998;4.250;2023-02-16T06:40:51;102023.50;;;8.56;72.91
13593;BME280;6867;50.998;4.250;2023-02-16T06:43:18;102021.53;;;8.58;73.18
13593;BME280;6867;50.998;4.250;2023-02-16T06:45:46;102012.78;;;8.56;72.37
13593;BME280;6867;50.998;4.250;2023-02-16T06:48:13;102023.00;;;8.61;72.31
13593;BME280;6867;50.998;4.250;2023-02-16T06:50:39;102012.94;;;8.46;72.54
13593;BME280;6867;50.998;4.250;2023-02-16T06:53:06;102025.69;;;8.44;73.01
13593;BME280;6867;50.998;4.250;2023-02-16T06:55:33;102030.72;;;8.56;73.38
13593;BME280;6867;50.998;4.250;2023-02-16T06:58:02;102032.53;;;8.47;72.88
13593;BME280;6867;50.998;4.250;2023-02-16T07:00:29;102039.44;;;8.58;73.21
13593;BME280;6867;50.998;4.250;2023-02-16T07:02:56;102037.59;;;8.58;73.59
13593;BME280;6867;50.998;4.250;2023-02-16T07:05:23;102040.91;;;8.52;73.13
13593;BME280;6867;50.998;4.250;2023-02-16T07:07:50;102060.44;;;8.36;73.30
13593;BME280;6867;50.998;4.250;2023-02-16T07:10:17;102067.66;;;8.44;73.80
13593;BME280;6867;50.998;4.250;2023-02-16T07:12:44;102060.16;;;8.56;73.23
13593;BME280;6867;50.998;4.250;2023-02-16T07:15:13;102046.63;;;8.57;72.76
13593;BME280;6867;50.998;4.250;2023-02-16T07:17:39;102091.56;;;8.88;74.34
13593;BME280;6867;50.998;4.250;2023-02-16T07:20:07;102056.53;;;8.81;73.78
13593;BME280;6867;50.998;4.250;2023-02-16T07:22:34;102042.81;;;8.84;72.71
13593;BME280;6867;50.998;4.250;2023-02-16T07:25:00;102035.44;;;8.70;72.92
13593;BME280;6867;50.998;4.250;2023-02-16T07:27:27;102051.53;;;8.70;73.26
13593;BME280;6867;50.998;4.250;2023-02-16T07:29:54;102054.69;;;8.73;72.34
13593;BME280;6867;50.998;4.250;2023-02-16T07:32:22;102057.84;;;8.69;72.63
13593;BME280;6867;50.998;4.250;2023-02-16T07:34:48;102056.38;;;8.75;72.81
13593;BME280;6867;50.998;4.250;2023-02-16T07:37:16;102050.53;;;8.87;73.12
13593;BME280;6867;50.998;4.250;2023-02-16T07:39:43;102063.94;;;8.87;73.20
13593;BME280;6867;50.998;4.250;2023-02-16T07:42:09;102050.56;;;8.95;72.79
13593;BME280;6867;50.998;4.250;2023-02-16T07:44:36;102051.53;;;8.94;72.89
13593;BME280;6867;50.998;4.250;2023-02-16T07:47:03;102061.81;;;9.07;71.95
13593;BME280;6867;50.998;4.250;2023-02-16T07:49:31;102054.75;;;9.14;72.41
13593;BME280;6867;50.998;4.250;2023-02-16T07:51:57;102055.75;;;9.30;71.60
13593;BME280;6867;50.998;4.250;2023-02-16T07:54:24;102058.63;;;9.20;72.03
13593;BME280;6867;50.998;4.250;2023-02-16T07:56:51;102056.78;;;9.29;71.25
13593;BME280;6867;50.998;4.250;2023-02-16T07:59:17;102045.69;;;9.40;71.70
13593;BME280;6867;50.998;4.250;2023-02-16T08:01:44;102056.94;;;9.35;70.99
13593;BME280;6867;50.998;4.250;2023-02-16T08:04:11;102072.19;;;9.51;71.65
13593;BME280;6867;50.998;4.250;2023-02-16T08:06:39;102063.63;;;9.56;71.64
13593;BME280;6867;50.998;4.250;2023-02-16T08:09:06;102053.38;;;9.67;70.46
13593;BME280;6867;50.998;4.250;2023-02-16T08:11:33;102051.50;;;9.76;70.54
13593;BME280;6867;50.998;4.250;2023-02-16T08:13:59;102050.66;;;9.84;70.83
13593;BME280;6867;50.998;4.250;2023-02-16T08:16:27;102047.63;;;9.95;70.18
13593;BME280;6867;50.998;4.250;2023-02-16T08:18:55;102062.41;;;9.91;70.40
13593;BME280;6867;50.998;4.250;2023-02-16T08:21:24;102066.53;;;10.10;69.74
13593;BME280;6867;50.998;4.250;2023-02-16T08:23:54;102062.31;;;10.07;69.48
13593;BME280;6867;50.998;4.250;2023-02-16T08:26:23;102056.28;;;10.13;68.99
13593;BME280;6867;50.998;4.250;2023-02-16T08:28:50;102056.69;;;9.86;69.70
13593;BME280;6867;50.998;4.250;2023-02-16T08:31:18;102074.94;;;9.98;69.63
13593;BME280;6867;50.998;4.250;2023-02-16T08:33:47;102075.06;;;10.13;69.66
13593;BME280;6867;50.998;4.250;2023-02-16T08:36:19;102064.19;;;9.98;69.66
13593;BME280;6867;50.998;4.250;2023-02-16T08:38:46;102061.50;;;10.07;69.45
13593;BME280;6867;50.998;4.250;2023-02-16T08:41:16;102067.22;;;10.04;69.33
13593;BME280;6867;50.998;4.250;2023-02-16T08:43:43;102061.19;;;9.93;69.65
13593;BME280;6867;50.998;4.250;2023-02-16T08:46:10;102073.84;;;10.24;70.01
13593;BME280;6867;50.998;4.250;2023-02-16T08:48:37;102083.63;;;10.17;69.89
13593;BME280;6867;50.998;4.250;2023-02-16T08:51:04;102093.78;;;10.46;69.86
13593;BME280;6867;50.998;4.250;2023-02-16T08:53:31;102073.53;;;10.66;69.39
13593;BME280;6867;50.998;4.250;2023-02-16T08:56:01;102079.59;;;10.60;69.40
13593;BME280;6867;50.998;4.250;2023-02-16T08:58:30;102090.03;;;10.86;69.85
13593;BME280;6867;50.998;4.250;2023-02-16T09:00:57;102077.25;;;10.88;69.23
13593;BME280;6867;50.998;4.250;2023-02-16T09:03:24;102072.91;;;10.87;69.57
13593;BME280;6867;50.998;4.250;2023-02-16T09:05:51;102094.72;;;10.92;69.97
13593;BME280;6867;50.998;4.250;2023-02-16T09:08:19;102088.03;;;10.88;69.48
13593;BME280;6867;50.998;4.250;2023-02-16T09:10:46;102086.16;;;11.12;69.23
13593;BME280;6867;50.998;4.250;2023-02-16T09:13:13;102091.84;;;10.94;69.44
13593;BME280;6867;50.998;4.250;2023-02-16T09:15:42;102086.00;;;11.13;69.30
13593;BME280;6867;50.998;4.250;2023-02-16T09:18:09;102088.41;;;11.08;69.51
13593;BME280;6867;50.998;4.250;2023-02-16T09:20:37;102078.81;;;10.83;69.63
13593;BME280;6867;50.998;4.250;2023-02-16T09:23:04;102090.47;;;10.75;69.73
13593;BME280;6867;50.998;4.250;2023-02-16T09:25:33;102096.38;;;10.93;69.91
13593;BME280;6867;50.998;4.250;2023-02-16T09:28:00;102093.03;;;10.91;69.83
13593;BME280;6867;50.998;4.250;2023-02-16T09:30:27;102096.69;;;11.21;69.82
13593;BME280;6867;50.998;4.250;2023-02-16T09:32:56;102093.53;;;11.18;69.43
13593;BME280;6867;50.998;4.250;2023-02-16T09:35:23;102113.66;;;11.22;69.75
13593;BME280;6867;50.998;4.250;2023-02-16T09:37:50;102098.38;;;11.22;69.24
13593;BME280;6867;50.998;4.250;2023-02-16T09:40:17;102117.06;;;11.16;69.72
13593;BME280;6867;50.998;4.250;2023-02-16T09:42:54;102106.56;;;11.06;69.51
13593;BME280;6867;50.998;4.250;2023-02-16T09:45:26;102107.38;;;11.07;69.66
13593;BME280;6867;50.998;4.250;2023-02-16T09:47:55;102120.97;;;10.82;70.38
13593;BME280;6867;50.998;4.250;2023-02-16T09:50:25;102099.59;;;10.89;70.32
13593;BME280;6867;50.998;4.250;2023-02-16T09:52:58;102117.81;;;10.79;70.83
13593;BME280;6867;50.998;4.250;2023-02-16T09:55:30;102119.66;;;10.78;70.80
13593;BME280;6867;50.998;4.250;2023-02-16T09:58:05;102094.31;;;11.04;70.80
13593;BME280;6867;50.998;4.250;2023-02-16T10:00:43;102123.50;;;11.07;71.04
13593;BME280;6867;50.998;4.250;2023-02-16T10:03:34;102116.88;;;11.40;70.55
13593;BME280;6867;50.998;4.250;2023-02-16T10:06:15;102109.16;;;11.60;70.29
13593;BME280;6867;50.998;4.250;2023-02-16T10:08:49;102106.41;;;11.68;69.80
13593;BME280;6867;50.998;4.250;2023-02-16T10:11:23;102090.03;;;12.08;68.88
13593;BME280;6867;50.998;4.250;2023-02-16T10:14:10;102073.13;;;11.84;68.43
13593;BME280;6867;50.998;4.250;2023-02-16T10:16:41;102059.31;;;11.87;68.41
13593;BME280;6867;50.998;4.250;2023-02-16T10:19:18;102052.53;;;12.06;67.83
13593;BME280;6867;50.998;4.250;2023-02-16T10:21:49;102052.25;;;12.01;67.87
13593;BME280;6867;50.998;4.250;2023-02-16T10:24:17;102046.50;;;12.04;67.66
13593;BME280;6867;50.998;4.250;2023-02-16T10:26:47;102058.84;;;11.99;68.20
13593;BME280;6867;50.998;4.250;2023-02-16T10:29:18;102035.78;;;12.11;67.42
13593;BME280;6867;50.998;4.250;2023-02-16T10:31:50;102063.66;;;12.18;68.20
13593;BME280;6867;50.998;4.250;2023-02-16T10:34:37;102087.91;;;12.03;68.68
13593;BME280;6867;50.998;4.250;2023-02-16T10:37:17;102077.50;;;12.30;68.25
13593;BME280;6867;50.998;4.250;2023-02-16T10:39:47;102081.97;;;12.23;68.41
13593;BME280;6867;50.998;4.250;2023-02-16T10:42:21;102073.63;;;12.54;68.02
13593;BME280;6867;50.998;4.250;2023-02-16T10:44:57;102068.28;;;12.39;67.86
13593;BME280;6867;50.998;4.250;2023-02-16T10:47:31;102069.84;;;12.48;67.97
13593;BME280;6867;50.998;4.250;2023-02-16T10:49:59;102047.50;;;12.69;67.02
13593;BME280;6867;50.998;4.250;2023-02-16T10:52:28;102049.47;;;12.60;66.89
13593;BME280;6867;50.998;4.250;2023-02-16T10:54:56;102075.41;;;12.61;67.26
13593;BME280;6867;50.998;4.250;2023-02-16T10:57:26;102064.84;;;12.81;66.88
13593;BME280;6867;50.998;4.250;2023-02-16T10:59:56;102037.00;;;13.38;65.50
13593;BME280;6867;50.998;4.250;2023-02-16T11:02:25;102016.53;;;13.51;64.99
13593;BME280;6867;50.998;4.250;2023-02-16T11:04:54;101981.63;;;13.49;63.93
13593;BME280;6867;50.998;4.250;2023-02-16T11:07:24;101986.78;;;13.72;63.86
13593;BME280;6867;50.998;4.250;2023-02-16T11:09:53;101979.00;;;13.97;62.78
13593;BME280;6867;50.998;4.250;2023-02-16T11:12:26;101940.88;;;14.33;62.23
13593;BME280;6867;50.998;4.250;2023-02-16T11:14:57;101958.34;;;14.31;62.20
13593;BME280;6867;50.998;4.250;2023-02-16T11:17:26;101944.00;;;13.76;62.60
13593;BME280;6867;50.998;4.250;2023-02-16T11:19:57;101961.25;;;13.81;62.43
13593;BME280;6867;50.998;4.250;2023-02-16T11:22:34;101988.81;;;13.70;63.71
13593;BME280;6867;50.998;4.250;2023-02-16T11:25:20;101972.69;;;13.83;62.73
13593;BME280;6867;50.998;4.250;2023-02-16T11:27:52;101968.72;;;13.79;62.95
13593;BME280;6867;50.998;4.250;2023-02-16T11:30:27;102004.59;;;14.08;63.88
13593;BME280;6867;50.998;4.250;2023-02-16T11:32:54;101978.06;;;14.18;62.70
13593;BME280;6867;50.998;4.250;2023-02-16T11:35:21;101980.31;;;14.14;62.85
13593;BME280;6867;50.998;4.250;2023-02-16T11:37:49;101976.25;;;14.38;62.38
13593;BME280;6867;50.998;4.250;2023-02-16T11:40:19;101982.59;;;14.11;63.12
13593;BME280;6867;50.998;4.250;2023-02-16T11:42:49;101993.13;;;13.99;63.73
13593;BME280;6867;50.998;4.250;2023-02-16T11:45:26;102010.72;;;14.23;64.22
13593;BME280;6867;50.998;4.250;2023-02-16T11:47:55;101980.72;;;14.05;63.36
13593;BME280;6867;50.998;4.250;2023-02-16T11:50:24;101994.56;;;13.88;64.25
13593;BME280;6867;50.998;4.250;2023-02-16T11:52:56;102008.06;;;13.95;64.58
13593;BME280;6867;50.998;4.250;2023-02-16T11:55:26;101987.59;;;13.73;64.27
13593;BME280;6867;50.998;4.250;2023-02-16T11:58:13;102017.31;;;13.73;65.19
13593;BME280;6867;50.998;4.250;2023-02-16T12:00:45;101982.50;;;13.91;63.80
13593;BME280;6867;50.998;4.250;2023-02-16T12:03:18;102000.03;;;14.08;64.36
13593;BME280;6867;50.998;4.250;2023-02-16T12:06:06;101977.41;;;14.16;64.00
13593;BME280;6867;50.998;4.250;2023-02-16T12:08:46;101961.00;;;14.17;63.38
13593;BME280;6867;50.998;4.250;2023-02-16T12:11:29;101985.38;;;14.37;64.37
13593;BME280;6867;50.998;4.250;2023-02-16T12:14:24;101970.69;;;14.53;63.73
13593;BME280;6867;50.998;4.250;2023-02-16T12:16:59;101975.06;;;14.54;63.68
13593;BME280;6867;50.998;4.250;2023-02-16T12:19:38;101945.44;;;14.26;63.51
13593;BME280;6867;50.998;4.250;2023-02-16T12:22:15;101969.19;;;14.44;64.16
13593;BME280;6867;50.998;4.250;2023-02-16T12:24:52;101960.09;;;14.58;63.85
13593;BME280;6867;50.998;4.250;2023-02-16T12:27:29;101938.72;;;14.97;62.64
13593;BME280;6867;50.998;4.250;2023-02-16T12:30:02;101926.22;;;15.22;61.48
13593;BME280;6867;50.998;4.250;2023-02-16T12:32:43;101924.56;;;14.94;62.03
13593;BME280;6867;50.998;4.250;2023-02-16T12:35:42;101936.19;;;14.75;62.91
13593;BME280;6867;50.998;4.250;2023-02-16T12:38:23;101944.31;;;14.68;63.21
13593;BME280;6867;50.998;4.250;2023-02-16T12:40:59;101978.25;;;14.98;64.14
13593;BME280;6867;50.998;4.250;2023-02-16T12:43:36;101946.63;;;14.98;63.63
13593;BME280;6867;50.998;4.250;2023-02-16T12:46:10;101955.97;;;14.76;63.61
13593;BME280;6867;50.998;4.250;2023-02-16T12:48:41;101963.44;;;14.67;63.65
13593;BME280;6867;50.998;4.250;2023-02-16T12:51:15;101959.50;;;14.96;63.91
13593;BME280;6867;50.998;4.250;2023-02-16T12:53:47;101937.88;;;15.09;62.81
13593;BME280;6867;50.998;4.250;2023-02-16T12:56:20;101949.72;;;15.15;63.36
13593;BME280;6867;50.998;4.250;2023-02-16T12:58:50;101922.84;;;15.33;62.50
13593;BME280;6867;50.998;4.250;2023-02-16T13:01:25;101914.13;;;15.05;62.71
13593;BME280;6867;50.998;4.250;2023-02-16T13:03:56;101930.97;;;15.33;62.55
13593;BME280;6867;50.998;4.250;2023-02-16T13:06:28;101924.03;;;15.64;62.44
13593;BME280;6867;50.998;4.250;2023-02-16T13:09:04;101931.16;;;15.52;62.40
13593;BME280;6867;50.998;4.250;2023-02-16T13:11:44;101920.38;;;15.97;61.53
13593;BME280;6867;50.998;4.250;2023-02-16T13:14:15;101874.13;;;15.91;60.92
13593;BME280;6867;50.998;4.250;2023-02-16T13:16:45;101884.94;;;15.98;60.81
13593;BME280;6867;50.998;4.250;2023-02-16T13:19:15;101883.72;;;15.94;61.15
13593;BME280;6867;50.998;4.250;2023-02-16T13:22:08;101888.59;;;16.17;61.19
13593;BME280;6867;50.998;4.250;2023-02-16T13:24:49;101862.66;;;16.28;60.33
13593;BME280;6867;50.998;4.250;2023-02-16T13:27:31;101850.00;;;16.47;59.68
13593;BME280;6867;50.998;4.250;2023-02-16T13:33:03;101850.59;;;16.24;59.84
13593;BME280;6867;50.998;4.250;2023-02-16T13:35:49;101858.59;;;16.12;60.49